Time;durP1;ratioP1;P1;durP2;ratioP2;P2;SDS_P1;SDS_P2;PMS_P1;PMS_P2;Temp;Humidity;BMP_temperature;BMP_pressure;BME280_temperature;BME280_humidity;BME280_pressure;Samples;Min_cycle;Max_cycle;Signal;HPM_P1;HPM_P2
2023/02/01 00:01:43;;;;;;;18.73;9.33;;;2.00;99.90;;;;;;5047905;28;20496;-57
2023/02/01 00:04:09;;;;;;;11.67;6.13;;;2.00;99.90;;;;;;5047386;28;20466;-58
2023/02/01 00:06:35;;;;;;;10.20;6.03;;;2.00;99.90;;;;;;5049703;28;20175;-57
2023/02/01 00:09:00;;;;;;;5.73;4.20;;;1.90;99.90;;;;;;5047923;28;20842;-58
2023/02/01 00:11:26;;;;;;;8.00;5.00;;;1.90;99.90;;;;;;5026946;28;20174;-57
2023/02/01 00:13:52;;;;;;;7.97;5.47;;;1.90;99.90;;;;;;5046720;28;20298;-58
2023/02/01 00:16:26;;;;;;;7.20;4.83;;;2.00;99.90;;;;;;5050448;28;20585;-58
2023/02/01 00:19:04;;;;;;;9.63;6.07;;;1.90;99.90;;;;;;5049603;28;20436;-57
2023/02/01 00:21:30;;;;;;;9.50;5.33;;;1.90;99.90;;;;;;5048209;28;20563;-56
2023/02/01 00:23:56;;;;;;;4.60;3.90;;;1.90;99.90;;;;;;5050615;28;20492;-57
2023/02/01 00:26:32;;;;;;;11.90;6.80;;;1.90;99.90;;;;;;5051295;28;20485;-58
2023/02/01 00:28:58;;;;;;;9.40;5.03;;;1.90;99.90;;;;;;5052843;28;20468;-59
2023/02/01 00:31:24;;;;;;;6.43;4.80;;;1.90;99.90;;;;;;5057704;28;20400;-59
2023/02/01 00:33:50;;;;;;;7.00;4.53;;;1.90;99.90;;;;;;5064229;28;20471;-58
2023/02/01 00:36:17;;;;;;;7.00;4.60;;;1.80;99.90;;;;;;5049848;28;20167;-59
2023/02/01 00:38:43;;;;;;;6.10;3.57;;;1.80;99.90;;;;;;5059216;28;20460;-61
2023/02/01 00:41:11;;;;;;;5.70;4.40;;;1.80;99.90;;;;;;5056446;28;20469;-59
2023/02/01 00:43:37;;;;;;;7.87;4.70;;;1.80;99.90;;;;;;5068322;28;20448;-58
2023/02/01 00:46:03;;;;;;;8.20;3.80;;;1.80;99.90;;;;;;5067766;28;20452;-58
2023/02/01 00:48:29;;;;;;;7.13;4.20;;;1.80;99.90;;;;;;5072576;28;20180;-59
2023/02/01 00:51:00;;;;;;;4.07;3.30;;;1.80;99.90;;;;;;5063776;28;20941;-58
2023/02/01 00:53:25;;;;;;;5.10;4.10;;;1.80;99.90;;;;;;5044610;28;20448;-58
2023/02/01 00:55:51;;;;;;;4.40;3.53;;;1.80;99.90;;;;;;5048932;28;20984;-59
2023/02/01 00:58:17;;;;;;;5.30;3.80;;;1.90;99.90;;;;;;5047110;28;20186;-58
2023/02/01 01:00:42;;;;;;;6.90;4.23;;;1.90;99.90;;;;;;5047495;28;20203;-57
2023/02/01 01:03:20;;;;;;;4.73;3.33;;;1.90;99.90;;;;;;5041750;28;20199;-59
2023/02/01 01:05:47;;;;;;;4.47;3.10;;;1.90;99.90;;;;;;5048644;28;20185;-58
2023/02/01 01:08:14;;;;;;;3.30;2.57;;;1.90;99.90;;;;;;5042251;28;20941;-57
2023/02/01 01:10:40;;;;;;;5.93;2.73;;;2.00;99.90;;;;;;5042880;28;20429;-57
2023/02/01 01:13:06;;;;;;;3.10;2.60;;;2.10;99.90;;;;;;5051649;28;20451;-59
2023/02/01 01:15:36;;;;;;;2.27;2.10;;;2.10;99.90;;;;;;5043482;28;20938;-59
2023/02/01 01:18:01;;;;;;;3.37;2.57;;;2.20;99.90;;;;;;5047872;28;20254;-58
2023/02/01 01:20:27;;;;;;;3.03;2.10;;;2.20;99.90;;;;;;5025166;28;21053;-57
2023/02/01 01:22:53;;;;;;;4.20;2.73;;;2.30;99.90;;;;;;5047235;28;20197;-58
2023/02/01 01:25:18;;;;;;;2.60;2.30;;;2.30;99.90;;;;;;5048404;28;20197;-58
2023/02/01 01:27:44;;;;;;;2.53;2.33;;;2.40;99.90;;;;;;5046606;28;20208;-57
2023/02/01 01:30:10;;;;;;;2.47;2.00;;;2.40;99.90;;;;;;5045264;28;20182;-57
2023/02/01 01:32:35;;;;;;;4.70;2.20;;;2.40;99.90;;;;;;5044913;28;20234;-57
2023/02/01 01:35:01;;;;;;;2.33;1.90;;;2.50;99.90;;;;;;5035628;28;20461;-58
2023/02/01 01:37:27;;;;;;;2.00;1.80;;;2.40;99.90;;;;;;5028849;28;20186;-58
2023/02/01 01:39:52;;;;;;;4.77;2.23;;;2.50;99.90;;;;;;5041567;28;20182;-59
2023/02/01 01:42:18;;;;;;;2.00;1.90;;;2.50;99.90;;;;;;5046844;28;20281;-58
2023/02/01 01:45:05;;;;;;;2.53;2.10;;;2.50;99.90;;;;;;5028059;28;20206;-57
2023/02/01 01:47:44;;;;;;;3.53;2.23;;;2.40;99.90;;;;;;5045790;28;20294;-58
2023/02/01 01:50:12;;;;;;;4.70;2.70;;;2.40;99.90;;;;;;5046831;28;20832;-57
2023/02/01 01:52:41;;;;;;;4.70;3.53;;;2.40;99.90;;;;;;5048320;28;20463;-58
2023/02/01 01:55:07;;;;;;;4.30;3.40;;;2.40;99.90;;;;;;5048756;28;20413;-57
2023/02/01 01:57:37;;;;;;;4.67;3.07;;;2.40;99.90;;;;;;5052033;28;20512;-58
2023/02/01 02:00:16;;;;;;;6.70;3.07;;;2.40;99.90;;;;;;5057394;28;20470;-58
2023/02/01 02:02:45;;;;;;;4.53;3.00;;;2.30;99.90;;;;;;5073755;28;20493;-60
2023/02/01 02:05:12;;;;;;;4.47;2.60;;;2.30;99.90;;;;;;5076312;28;20497;-59
2023/02/01 02:07:43;;;;;;;4.30;2.70;;;2.30;99.90;;;;;;5065865;28;20569;-58
2023/02/01 02:10:12;;;;;;;3.00;2.57;;;2.30;99.90;;;;;;5046020;28;20425;-57
2023/02/01 02:12:40;;;;;;;3.47;2.30;;;2.30;99.90;;;;;;5051921;28;20491;-56
2023/02/01 02:15:08;;;;;;;3.90;3.07;;;2.30;99.90;;;;;;5046682;28;20440;-56
2023/02/01 02:17:55;;;;;;;5.10;2.87;;;2.30;99.90;;;;;;5047180;28;20484;-56
2023/02/01 02:20:48;;;;;;;4.37;3.23;;;2.30;99.90;;;;;;5044818;28;20481;-60
2023/02/01 02:23:55;;;;;;;3.53;2.70;;;2.20;99.90;;;;;;5037295;28;20945;-58
2023/02/01 02:26:35;;;;;;;4.10;3.33;;;2.20;99.90;;;;;;5046381;28;20481;-56
2023/02/01 02:29:28;;;;;;;3.20;2.87;;;2.20;99.90;;;;;;5044355;28;20440;-57
2023/02/01 02:32:15;;;;;;;3.97;2.63;;;2.20;99.90;;;;;;5025568;28;20465;-56
2023/02/01 02:34:52;;;;;;;3.10;2.80;;;2.20;99.90;;;;;;5041398;28;20530;-57
2023/02/01 02:37:35;;;;;;;2.77;2.57;;;2.20;99.90;;;;;;5044952;28;20441;-59
2023/02/01 02:40:47;;;;;;;2.80;2.50;;;2.10;99.90;;;;;;5044992;28;20463;-57
2023/02/01 02:54:45;;;;;;;3.53;3.00;;;2.10;99.90;;;;;;5044370;28;20437;-58
2023/02/01 02:55:26;;;;;;;3.80;2.63;;;2.10;99.90;;;;;;5047508;28;20553;-56
2023/02/01 03:06:17;;;;;;;2.67;2.33;;;2.20;99.90;;;;;;5056932;28;20444;-57
2023/02/01 03:08:45;;;;;;;3.60;2.30;;;2.20;99.90;;;;;;5045331;28;20433;-59
2023/02/01 03:11:13;;;;;;;7.60;2.20;;;2.20;99.90;;;;;;5030374;28;20521;-58
2023/02/01 03:14:01;;;;;;;2.30;2.03;;;2.20;99.90;;;;;;5052270;28;20449;-58
2023/02/01 03:16:55;;;;;;;7.13;2.67;;;2.20;99.90;;;;;;5051951;28;20462;-59
2023/02/01 03:19:37;;;;;;;3.10;2.80;;;2.20;99.90;;;;;;5045837;28;20448;-58
2023/02/01 03:22:09;;;;;;;2.30;2.10;;;2.10;99.90;;;;;;5043482;28;20469;-59
2023/02/01 03:24:43;;;;;;;2.23;2.03;;;2.20;99.90;;;;;;5046938;28;20428;-60
2023/02/01 03:27:14;;;;;;;3.17;2.60;;;2.20;99.90;;;;;;5044826;28;20412;-57
2023/02/01 03:29:49;;;;;;;3.33;2.10;;;2.20;99.90;;;;;;5037478;28;22115;-58
2023/02/01 03:32:14;;;;;;;2.37;2.10;;;2.30;99.90;;;;;;5044218;28;20452;-57
2023/02/01 03:34:40;;;;;;;4.10;2.57;;;2.30;99.90;;;;;;5040568;28;20430;-57
2023/02/01 03:37:10;;;;;;;2.57;2.37;;;2.30;99.90;;;;;;5045401;28;20622;-58
2023/02/01 03:39:47;;;;;;;2.33;2.10;;;2.30;99.90;;;;;;5043250;28;20833;-57
2023/02/01 03:42:20;;;;;;;3.20;2.80;;;2.30;99.90;;;;;;5045309;28;20465;-57
2023/02/01 03:45:08;;;;;;;3.07;2.73;;;2.30;99.90;;;;;;5039440;28;20446;-58
2023/02/01 03:47:45;;;;;;;3.63;2.67;;;2.30;99.90;;;;;;5042696;28;20439;-58
2023/02/01 03:50:14;;;;;;;6.33;2.40;;;2.30;99.90;;;;;;5042854;28;20436;-58
2023/02/01 03:52:44;;;;;;;2.80;2.50;;;2.30;99.90;;;;;;5040151;28;20457;-58
2023/02/01 03:55:12;;;;;;;4.17;2.70;;;2.30;99.90;;;;;;5046440;28;20449;-57
2023/02/01 03:57:54;;;;;;;5.03;3.47;;;2.30;99.90;;;;;;5038595;28;21128;-57
2023/02/01 04:00:23;;;;;;;4.73;2.77;;;2.30;99.90;;;;;;5039897;28;20425;-57
2023/02/01 04:02:50;;;;;;;4.33;2.83;;;2.30;99.90;;;;;;5045582;28;20987;-58
2023/02/01 04:05:16;;;;;;;5.07;2.97;;;2.30;99.90;;;;;;5044865;28;20432;-61
2023/02/01 04:07:42;;;;;;;5.57;3.20;;;2.30;99.90;;;;;;5046202;28;20497;-59
2023/02/01 04:10:09;;;;;;;3.90;2.50;;;2.30;99.90;;;;;;5067191;28;20452;-59
2023/02/01 04:12:35;;;;;;;6.57;2.97;;;2.30;99.90;;;;;;5069941;28;20461;-72
2023/02/01 04:15:01;;;;;;;2.90;2.60;;;2.30;99.90;;;;;;5073195;28;20424;-59
2023/02/01 04:17:26;;;;;;;4.80;3.40;;;2.30;99.90;;;;;;5070291;28;20423;-59
2023/02/01 04:19:52;;;;;;;3.23;2.83;;;2.30;99.90;;;;;;5060689;28;20182;-59
2023/02/01 04:22:17;;;;;;;3.03;2.43;;;2.40;99.90;;;;;;5070712;28;20216;-59
2023/02/01 04:24:43;;;;;;;3.40;3.10;;;2.40;99.90;;;;;;5071877;28;20175;-59
2023/02/01 04:27:09;;;;;;;6.13;3.47;;;2.40;99.90;;;;;;5072133;28;20260;-59
2023/02/01 04:29:34;;;;;;;4.37;3.03;;;2.30;99.90;;;;;;5070739;28;20221;-59
2023/02/01 04:32:00;;;;;;;3.17;2.87;;;2.40;99.90;;;;;;5059190;28;20194;-58
2023/02/01 04:34:26;;;;;;;3.80;2.93;;;2.40;99.90;;;;;;5041907;28;20172;-58
2023/02/01 04:36:51;;;;;;;7.20;3.73;;;2.40;99.90;;;;;;5046164;28;20186;-57
2023/02/01 04:39:17;;;;;;;5.70;3.23;;;2.40;99.90;;;;;;5031416;28;20175;-58
2023/02/01 04:41:43;;;;;;;3.67;2.87;;;2.40;99.90;;;;;;5047536;28;20520;-57
2023/02/01 04:44:18;;;;;;;4.53;3.50;;;2.30;99.90;;;;;;5046886;28;20678;-57
2023/02/01 04:46:45;;;;;;;4.23;3.57;;;2.40;99.90;;;;;;5043682;28;20791;-56
2023/02/01 04:49:12;;;;;;;10.53;3.90;;;2.30;99.90;;;;;;5040586;28;20532;-57
2023/02/01 04:51:38;;;;;;;4.20;2.97;;;2.30;99.90;;;;;;5041414;28;20433;-57
2023/02/01 04:54:04;;;;;;;4.33;3.27;;;2.30;99.90;;;;;;5045100;28;20444;-57
2023/02/01 04:56:30;;;;;;;4.23;2.97;;;2.30;99.90;;;;;;5026742;28;20774;-57
2023/02/01 04:58:56;;;;;;;5.13;3.00;;;2.30;99.90;;;;;;5045053;28;20252;-57
2023/02/01 05:01:22;;;;;;;3.90;2.97;;;2.40;99.90;;;;;;5016412;28;20325;-61
2023/02/01 05:03:48;;;;;;;4.40;3.27;;;2.40;99.90;;;;;;5042120;28;20223;-57
2023/02/01 05:06:13;;;;;;;4.40;2.87;;;2.40;99.90;;;;;;5045513;28;20562;-57
2023/02/01 05:08:39;;;;;;;7.10;3.73;;;2.40;99.90;;;;;;5040672;28;20179;-59
2023/02/01 05:11:05;;;;;;;4.23;2.93;;;2.50;99.90;;;;;;5043237;28;20210;-59
2023/02/01 05:13:49;;;;;;;4.20;3.40;;;2.40;99.90;;;;;;5023284;28;20207;-59
2023/02/01 05:16:15;;;;;;;5.27;3.10;;;2.50;99.90;;;;;;5032166;28;20855;-59
2023/02/01 05:18:41;;;;;;;5.10;2.90;;;2.50;99.90;;;;;;5067851;28;20431;-58
2023/02/01 05:21:07;;;;;;;4.93;3.20;;;2.50;99.90;;;;;;5054623;28;20468;-55
2023/02/01 05:24:09;;;;;;;5.70;3.60;;;2.50;99.90;;;;;;5023119;28;20204;-56
2023/02/01 05:26:18;;;;;;;5.13;3.47;;;2.50;99.90;;;;;;5044124;28;20224;-58
2023/02/01 05:28:44;;;;;;;3.80;3.03;;;2.50;99.90;;;;;;5039945;28;20516;-58
2023/02/01 05:31:11;;;;;;;5.13;3.10;;;2.50;99.90;;;;;;5027477;28;20304;-57
2023/02/01 05:33:36;;;;;;;4.10;3.10;;;2.50;99.90;;;;;;5041615;28;20241;-59
2023/02/01 05:36:02;;;;;;;6.30;3.00;;;2.50;99.90;;;;;;5047252;28;21003;-59
2023/02/01 05:38:29;;;;;;;5.53;3.70;;;2.40;99.90;;;;;;5048439;28;20214;-58
2023/02/01 05:40:55;;;;;;;4.90;3.73;;;2.40;99.90;;;;;;5041771;28;20236;-59
2023/02/01 05:43:21;;;;;;;5.77;3.70;;;2.40;99.90;;;;;;5038092;28;20463;-58
2023/02/01 05:45:47;;;;;;;4.07;3.37;;;2.40;99.90;;;;;;5039392;28;20795;-59
2023/02/01 05:48:13;;;;;;;9.10;4.50;;;2.40;99.90;;;;;;5055368;28;20428;-60
2023/02/01 05:50:38;;;;;;;4.67;4.00;;;2.40;99.90;;;;;;5064256;28;20186;-59
2023/02/01 05:53:04;;;;;;;5.43;3.83;;;2.40;99.90;;;;;;5071059;28;20210;-59
2023/02/01 05:55:30;;;;;;;6.07;4.10;;;2.40;99.90;;;;;;5062421;28;20195;-57
2023/02/01 05:57:55;;;;;;;6.50;4.40;;;2.40;99.90;;;;;;5046057;28;20184;-58
2023/02/01 06:00:21;;;;;;;4.83;4.10;;;2.40;99.90;;;;;;5046007;28;20260;-58
2023/02/01 06:02:47;;;;;;;8.30;4.50;;;2.30;99.90;;;;;;5047087;28;20761;-59
2023/02/01 06:05:12;;;;;;;6.07;4.30;;;2.40;99.90;;;;;;5040766;28;20502;-58
2023/02/01 06:07:38;;;;;;;11.53;5.60;;;2.40;99.90;;;;;;5049006;28;20170;-57
2023/02/01 06:10:04;;;;;;;6.57;4.67;;;2.30;99.90;;;;;;5047684;28;20217;-59
2023/02/01 06:12:30;;;;;;;7.47;4.80;;;2.30;99.90;;;;;;5065113;28;20336;-59
2023/02/01 06:14:55;;;;;;;8.27;5.00;;;2.30;99.90;;;;;;5057281;28;20499;-60
2023/02/01 06:17:21;;;;;;;11.77;5.37;;;2.30;99.90;;;;;;5057952;28;20171;-59
2023/02/01 06:19:48;;;;;;;8.60;5.60;;;2.30;99.90;;;;;;5038151;28;20248;-61
2023/02/01 06:22:14;;;;;;;9.60;5.80;;;2.30;99.90;;;;;;5041668;28;20712;-58
2023/02/01 06:24:40;;;;;;;10.27;6.37;;;2.20;99.90;;;;;;5038460;28;20533;-58
2023/02/01 06:27:06;;;;;;;8.63;5.90;;;2.20;99.90;;;;;;5038000;28;20175;-59
2023/02/01 06:29:32;;;;;;;11.63;6.10;;;2.20;99.90;;;;;;5042780;28;20462;-60
2023/02/01 06:31:58;;;;;;;7.83;4.90;;;2.20;99.90;;;;;;5043484;28;20503;-59
2023/02/01 06:34:24;;;;;;;7.80;5.77;;;2.20;99.90;;;;;;5019060;28;20531;-59
2023/02/01 06:36:50;;;;;;;10.97;6.03;;;2.20;99.90;;;;;;5043663;28;20513;-59
2023/02/01 06:39:16;;;;;;;8.90;5.00;;;2.20;99.90;;;;;;5041082;28;20183;-59
2023/02/01 06:41:45;;;;;;;11.40;5.37;;;2.20;99.90;;;;;;5043677;28;20468;-60
2023/02/01 06:44:10;;;;;;;6.67;5.07;;;2.20;99.90;;;;;;5048940;28;20183;-58
2023/02/01 06:46:36;;;;;;;12.77;6.50;;;2.20;99.90;;;;;;5044489;28;21206;-59
2023/02/01 06:49:02;;;;;;;8.43;5.80;;;2.20;99.90;;;;;;5038653;28;20720;-59
2023/02/01 06:51:29;;;;;;;12.43;5.60;;;2.20;99.90;;;;;;5044656;28;20219;-60
2023/02/01 06:53:55;;;;;;;6.93;5.47;;;2.20;99.90;;;;;;5051789;28;20213;-59
2023/02/01 06:56:21;;;;;;;8.60;5.40;;;2.20;99.90;;;;;;5043363;28;20842;-59
2023/02/01 06:58:48;;;;;;;11.03;5.43;;;2.10;99.90;;;;;;5034012;28;20437;-61
2023/02/01 07:01:14;;;;;;;10.30;5.73;;;2.10;99.90;;;;;;5063353;28;20460;-62
2023/02/01 07:03:40;;;;;;;11.30;6.03;;;2.10;99.90;;;;;;5067192;28;20453;-61
2023/02/01 07:06:08;;;;;;;9.70;5.87;;;2.10;99.90;;;;;;5050521;28;20437;-60
2023/02/01 07:08:37;;;;;;;9.13;6.43;;;2.10;99.90;;;;;;5066068;28;20504;-60
2023/02/01 07:11:04;;;;;;;10.80;6.50;;;2.20;99.90;;;;;;5069133;28;20468;-60
2023/02/01 07:13:30;;;;;;;9.40;5.90;;;2.20;99.90;;;;;;5060054;28;20595;-59
2023/02/01 07:16:01;;;;;;;13.33;6.53;;;2.20;99.90;;;;;;5045360;28;20510;-58
2023/02/01 07:18:28;;;;;;;8.07;5.43;;;2.20;99.90;;;;;;5040413;28;20175;-59
2023/02/01 07:20:54;;;;;;;11.27;6.50;;;2.20;99.90;;;;;;5038232;28;20470;-59
2023/02/01 07:23:20;;;;;;;12.33;6.73;;;2.20;99.90;;;;;;5053437;28;20574;-60
2023/02/01 07:25:46;;;;;;;9.50;5.87;;;2.20;99.90;;;;;;5068765;28;20202;-60
2023/02/01 07:28:11;;;;;;;8.03;5.43;;;2.20;99.90;;;;;;5066739;28;20179;-61
2023/02/01 07:30:37;;;;;;;12.60;5.57;;;2.20;99.90;;;;;;5070682;28;20433;-61
2023/02/01 07:33:03;;;;;;;7.60;5.87;;;2.20;99.90;;;;;;5044487;28;20199;-59
2023/02/01 07:35:29;;;;;;;9.90;5.90;;;2.20;99.90;;;;;;5046527;28;20175;-59
2023/02/01 07:37:57;;;;;;;12.40;5.90;;;2.20;99.90;;;;;;5047085;28;20281;-59
2023/02/01 07:40:28;;;;;;;7.90;4.73;;;2.20;99.90;;;;;;5043403;28;20449;-59
2023/02/01 07:42:55;;;;;;;8.87;5.43;;;2.20;99.90;;;;;;5043632;28;20449;-59
2023/02/01 07:45:21;;;;;;;8.57;5.77;;;2.20;99.90;;;;;;5043707;28;20430;-58
2023/02/01 07:47:46;;;;;;;7.67;5.20;;;2.20;99.90;;;;;;5032060;28;20429;-59
2023/02/01 07:50:12;;;;;;;8.73;5.00;;;2.20;99.90;;;;;;5051692;28;20751;-59
2023/02/01 07:52:38;;;;;;;8.17;4.90;;;2.20;99.90;;;;;;5040404;28;20694;-59
2023/02/01 07:55:04;;;;;;;6.30;4.60;;;2.30;99.90;;;;;;5044498;28;20227;-58
2023/02/01 07:57:29;;;;;;;6.30;4.70;;;2.30;99.90;;;;;;5048629;28;20274;-59
2023/02/01 08:02:39;;;;;;;10.67;4.53;;;2.30;99.90;;;;;;5040173;28;20257;-59
2023/02/01 08:05:05;;;;;;;9.40;5.40;;;2.40;99.90;;;;;;5043682;28;20457;-59
2023/02/01 08:07:31;;;;;;;7.27;4.90;;;2.40;99.90;;;;;;5050766;28;20190;-59
2023/02/01 08:09:56;;;;;;;6.50;4.27;;;2.40;99.90;;;;;;5039401;28;20422;-60
2023/02/01 08:12:22;;;;;;;9.47;4.90;;;2.50;99.90;;;;;;5047602;28;20240;-59
2023/02/01 08:14:47;;;;;;;12.20;4.87;;;2.50;99.90;;;;;;5049316;28;20174;-59
2023/02/01 08:17:13;;;;;;;9.70;4.90;;;2.50;99.90;;;;;;5036918;28;20241;-60
2023/02/01 08:19:39;;;;;;;6.73;4.57;;;2.50;99.90;;;;;;5033449;28;20198;-60
2023/02/01 08:22:06;;;;;;;11.20;4.63;;;2.50;99.90;;;;;;5039560;28;20918;-59
2023/02/01 08:24:33;;;;;;;6.30;4.90;;;2.50;99.90;;;;;;5023226;28;20298;-59
2023/02/01 08:27:01;;;;;;;10.33;4.40;;;2.50;99.90;;;;;;5044173;28;20551;-59
2023/02/01 08:29:27;;;;;;;5.83;3.87;;;2.50;99.90;;;;;;5038816;28;21020;-59
2023/02/01 08:31:54;;;;;;;5.23;4.43;;;2.50;99.90;;;;;;5042242;28;20425;-60
2023/02/01 08:34:19;;;;;;;6.47;3.93;;;2.60;99.90;;;;;;5040362;28;20432;-59
2023/02/01 08:36:45;;;;;;;8.43;3.90;;;2.60;99.90;;;;;;5043232;28;20432;-60
2023/02/01 08:39:11;;;;;;;5.43;4.30;;;2.60;99.90;;;;;;5039864;28;20843;-59
2023/02/01 08:41:37;;;;;;;6.93;4.20;;;2.60;99.90;;;;;;5042185;28;20608;-59
2023/02/01 08:44:03;;;;;;;5.53;3.70;;;2.60;99.90;;;;;;5048426;28;20433;-61
2023/02/01 08:46:29;;;;;;;5.73;4.17;;;2.60;99.90;;;;;;5057259;28;20468;-61
2023/02/01 08:48:55;;;;;;;5.10;3.90;;;2.60;99.90;;;;;;5051909;28;20216;-59
2023/02/01 08:51:22;;;;;;;6.60;4.10;;;2.60;99.90;;;;;;5036459;28;20300;-59
2023/02/01 08:53:49;;;;;;;8.23;4.60;;;2.60;99.90;;;;;;5041784;28;20289;-58
2023/02/01 08:56:16;;;;;;;6.10;4.03;;;2.60;99.90;;;;;;5041475;28;20785;-58
2023/02/01 08:58:42;;;;;;;8.00;5.03;;;2.60;99.90;;;;;;5029478;28;20445;-58
2023/02/01 09:01:13;;;;;;;5.30;4.00;;;2.50;99.90;;;;;;5042756;28;20485;-58
2023/02/01 09:03:39;;;;;;;4.50;3.60;;;2.50;99.90;;;;;;5042130;28;20567;-59
2023/02/01 09:06:07;;;;;;;6.50;4.30;;;2.60;99.90;;;;;;5042065;28;20420;-58
2023/02/01 09:08:34;;;;;;;5.50;4.13;;;2.60;99.90;;;;;;5031402;28;20190;-59
2023/02/01 09:11:01;;;;;;;12.60;4.43;;;2.60;99.90;;;;;;5046971;28;20421;-59
2023/02/01 09:13:27;;;;;;;5.90;4.30;;;2.60;99.90;;;;;;5040579;28;20958;-59
2023/02/01 09:15:53;;;;;;;5.87;4.70;;;2.60;99.90;;;;;;5038153;28;20456;-58
2023/02/01 09:18:19;;;;;;;8.67;4.90;;;2.60;99.90;;;;;;5024798;28;20202;-60
2023/02/01 09:20:44;;;;;;;6.00;4.43;;;2.60;99.90;;;;;;5037417;28;20206;-57
2023/02/01 09:23:10;;;;;;;6.53;4.70;;;2.60;99.90;;;;;;5044211;28;20887;-58
2023/02/01 09:25:38;;;;;;;9.60;5.10;;;2.70;99.90;;;;;;5044896;28;20204;-57
2023/02/01 09:28:05;;;;;;;6.63;4.30;;;2.70;99.90;;;;;;5066408;28;20184;-59
2023/02/01 09:30:32;;;;;;;9.03;5.23;;;2.80;99.90;;;;;;5057996;28;20611;-59
2023/02/01 09:32:57;;;;;;;6.50;4.50;;;2.80;99.90;;;;;;5041081;28;20480;-59
2023/02/01 09:35:23;;;;;;;12.20;5.33;;;2.90;99.90;;;;;;5042693;28;20430;-58
2023/02/01 09:37:49;;;;;;;6.43;4.43;;;2.90;99.90;;;;;;5041316;28;20179;-59
2023/02/01 09:40:16;;;;;;;9.03;5.20;;;2.90;99.90;;;;;;5049574;28;20177;-59
2023/02/01 09:42:47;;;;;;;8.70;4.83;;;2.90;99.90;;;;;;5062759;28;20205;-58
2023/02/01 09:45:31;;;;;;;7.07;5.17;;;2.90;99.90;;;;;;5064281;28;20492;-61
2023/02/01 09:48:08;;;;;;;9.20;5.07;;;2.90;99.90;;;;;;5051274;28;20496;-59
2023/02/01 09:50:45;;;;;;;8.13;4.50;;;2.90;99.90;;;;;;5053289;28;20419;-58
2023/02/01 09:53:25;;;;;;;7.57;5.00;;;2.90;99.90;;;;;;5042141;28;20433;-58
2023/02/01 09:55:54;;;;;;;10.40;4.57;;;2.90;99.90;;;;;;5039168;28;21061;-60
2023/02/01 09:58:47;;;;;;;8.83;4.70;;;2.90;99.90;;;;;;5042200;28;20411;-58
2023/02/01 10:01:25;;;;;;;6.60;4.80;;;2.90;99.90;;;;;;5043489;28;20534;-58
2023/02/01 10:04:04;;;;;;;7.60;5.17;;;2.90;99.90;;;;;;5040956;28;20575;-59
2023/02/01 10:06:57;;;;;;;9.03;5.33;;;2.90;99.90;;;;;;5037728;28;20564;-59
2023/02/01 10:09:41;;;;;;;9.47;5.33;;;2.90;99.90;;;;;;5040648;28;20425;-58
2023/02/01 10:12:22;;;;;;;5.40;4.43;;;2.90;99.90;;;;;;5024685;28;20445;-59
2023/02/01 10:15:12;;;;;;;7.80;4.40;;;3.00;99.90;;;;;;5040830;28;20433;-59
2023/02/01 10:17:52;;;;;;;10.07;5.40;;;3.00;99.90;;;;;;5023580;28;20544;-59
2023/02/01 10:20:18;;;;;;;6.63;4.40;;;3.00;99.90;;;;;;5015370;28;20440;-60
2023/02/01 10:23:15;;;;;;;8.77;4.93;;;3.00;99.90;;;;;;5036657;28;20449;-52
2023/02/01 10:26:05;;;;;;;5.47;4.43;;;3.10;99.90;;;;;;5004098;28;20425;-53
2023/02/01 10:28:36;;;;;;;7.53;4.73;;;3.10;99.90;;;;;;5042935;28;20441;-50
2023/02/01 10:31:03;;;;;;;8.27;4.63;;;3.10;99.90;;;;;;5042005;28;20459;-54
2023/02/01 10:33:41;;;;;;;7.70;4.70;;;3.20;99.90;;;;;;5043324;28;20614;-52
2023/02/01 10:36:39;;;;;;;5.50;4.30;;;3.20;99.90;;;;;;5038891;28;20452;-51
2023/02/01 10:39:07;;;;;;;7.83;4.67;;;3.10;99.90;;;;;;5042635;28;20566;-51
2023/02/01 10:41:35;;;;;;;7.30;4.50;;;3.10;99.90;;;;;;5039831;28;20460;-51
2023/02/01 10:44:04;;;;;;;6.27;4.50;;;3.10;99.90;;;;;;5041996;28;20928;-50
2023/02/01 10:46:33;;;;;;;4.80;4.13;;;3.10;99.90;;;;;;5042071;28;20475;-51
2023/02/01 10:49:02;;;;;;;5.63;4.33;;;3.10;99.90;;;;;;5039949;28;20425;-53
2023/02/01 10:51:38;;;;;;;6.63;4.10;;;3.10;99.90;;;;;;5040665;28;20475;-50
2023/02/01 10:54:15;;;;;;;5.67;4.40;;;3.10;99.90;;;;;;5047700;28;20441;-55
2023/02/01 10:56:45;;;;;;;6.63;3.90;;;3.10;99.90;;;;;;5051269;28;20492;-53
2023/02/01 10:59:24;;;;;;;9.13;4.30;;;3.10;99.90;;;;;;5051336;28;20425;-54
2023/02/01 11:01:57;;;;;;;7.50;4.07;;;3.10;99.90;;;;;;5047845;28;21207;-54
2023/02/01 11:04:26;;;;;;;8.63;4.23;;;3.10;99.90;;;;;;5042963;28;20435;-51
2023/02/01 11:07:05;;;;;;;9.50;4.60;;;3.10;99.90;;;;;;5043933;28;20429;-56
2023/02/01 11:09:31;;;;;;;5.90;3.63;;;3.10;99.90;;;;;;5064392;28;20434;-55
2023/02/01 11:11:59;;;;;;;5.13;4.10;;;3.10;99.90;;;;;;5063799;28;20482;-54
2023/02/01 11:14:25;;;;;;;5.87;4.17;;;3.10;99.90;;;;;;5063919;28;20716;-54
2023/02/01 11:17:12;;;;;;;9.33;3.60;;;3.10;99.90;;;;;;5054063;28;20522;-50
2023/02/01 11:19:38;;;;;;;4.33;3.63;;;3.20;99.90;;;;;;5041759;28;20175;-51
2023/02/01 11:22:04;;;;;;;4.50;3.80;;;3.20;99.90;;;;;;5046824;28;20609;-51
2023/02/01 11:24:34;;;;;;;6.20;3.87;;;3.20;99.90;;;;;;5039421;28;20500;-55
2023/02/01 11:27:03;;;;;;;4.80;3.60;;;3.30;99.90;;;;;;5053490;28;20167;-54
2023/02/01 11:29:42;;;;;;;6.83;3.70;;;3.30;99.90;;;;;;5046031;28;20437;-51
2023/02/01 11:32:09;;;;;;;5.03;3.60;;;3.30;99.90;;;;;;5042781;28;20531;-54
2023/02/01 11:34:59;;;;;;;4.30;3.27;;;3.40;99.90;;;;;;5041894;28;20457;-51
2023/02/01 11:37:34;;;;;;;7.40;3.43;;;3.40;99.90;;;;;;5040567;28;20945;-52
2023/02/01 11:40:03;;;;;;;5.30;2.70;;;3.50;99.90;;;;;;5043300;28;20405;-58
2023/02/01 11:42:29;;;;;;;10.13;2.73;;;3.50;99.90;;;;;;5033385;28;21014;-58
2023/02/01 11:45:25;;;;;;;3.63;2.73;;;3.70;99.90;;;;;;5040740;28;20452;-57
2023/02/01 11:47:57;;;;;;;6.43;3.50;;;3.70;99.90;;;;;;5015711;28;20410;-56
2023/02/01 11:50:54;;;;;;;7.50;3.90;;;3.80;99.90;;;;;;5040719;28;20520;-58
2023/02/01 11:53:22;;;;;;;9.07;4.30;;;3.90;99.90;;;;;;5037285;28;20449;-59
2023/02/01 11:55:54;;;;;;;5.30;3.67;;;3.90;99.90;;;;;;5038031;28;20508;-58
2023/02/01 11:58:29;;;;;;;5.03;3.17;;;3.90;99.90;;;;;;5061630;28;20457;-59
2023/02/01 12:01:13;;;;;;;3.70;3.10;;;3.90;99.90;;;;;;5060970;28;20484;-58
2023/02/01 12:04:13;;;;;;;4.67;3.23;;;3.90;99.90;;;;;;5058914;28;20456;-58
2023/02/01 12:07:10;;;;;;;8.70;3.90;;;3.90;99.90;;;;;;5038928;28;20433;-56
2023/02/01 12:09:38;;;;;;;5.53;3.90;;;3.80;99.90;;;;;;5040960;28;20932;-55
2023/02/01 12:12:17;;;;;;;6.13;3.80;;;3.80;99.90;;;;;;5040429;28;20837;-55
2023/02/01 12:14:55;;;;;;;9.50;3.63;;;3.80;99.90;;;;;;5036092;28;21069;-57
2023/02/01 12:17:46;;;;;;;4.87;3.43;;;3.80;99.90;;;;;;5042412;28;20433;-57
2023/02/01 12:20:31;;;;;;;6.23;3.47;;;3.80;99.90;;;;;;5037752;28;20437;-56
2023/02/01 12:23:15;;;;;;;7.80;4.33;;;3.80;99.90;;;;;;5036590;28;20484;-57
2023/02/01 12:25:59;;;;;;;5.37;3.70;;;3.70;99.90;;;;;;5041255;28;20449;-56
2023/02/01 12:28:25;;;;;;;9.00;3.97;;;3.70;99.90;;;;;;5055431;28;20497;-57
2023/02/01 12:31:13;;;;;;;3.47;3.17;;;3.70;99.90;;;;;;5046245;28;20429;-57
2023/02/01 12:33:58;;;;;;;5.73;3.93;;;3.70;99.90;;;;;;5039909;28;21191;-58
2023/02/01 12:36:58;;;;;;;3.93;3.13;;;3.70;99.90;;;;;;5052101;28;20469;-57
2023/02/01 12:39:24;;;;;;;3.23;2.93;;;3.70;99.90;;;;;;5054444;28;20457;-58
2023/02/01 12:41:56;;;;;;;5.87;2.70;;;3.70;99.90;;;;;;5058728;28;21079;-56
2023/02/01 12:44:40;;;;;;;3.83;2.20;;;3.70;99.90;;;;;;5041896;28;20422;-55
2023/02/01 12:47:18;;;;;;;4.20;2.90;;;3.80;99.90;;;;;;5042675;28;20425;-56
2023/02/01 12:50:01;;;;;;;8.10;3.03;;;3.80;99.40;;;;;;5047607;28;20496;-57
2023/02/01 12:52:50;;;;;;;4.20;2.23;;;3.80;97.60;;;;;;5065311;28;20516;-57
2023/02/01 12:55:16;;;;;;;3.00;2.33;;;3.90;95.00;;;;;;5042984;28;20466;-57
2023/02/01 12:57:46;;;;;;;5.03;3.00;;;3.90;93.70;;;;;;5044625;28;20539;-57
2023/02/01 13:00:30;;;;;;;6.00;3.10;;;3.90;95.00;;;;;;5037855;28;20914;-55
2023/02/01 13:03:17;;;;;;;6.97;3.13;;;3.90;92.70;;;;;;5045524;28;20441;-50
2023/02/01 13:06:04;;;;;;;6.90;2.87;;;3.90;92.00;;;;;;5045824;28;20424;-55
2023/02/01 13:08:47;;;;;;;10.70;2.90;;;3.90;91.70;;;;;;5039669;28;20429;-56
2023/02/01 13:11:37;;;;;;;4.30;2.50;;;3.90;90.90;;;;;;5025387;28;20446;-55
2023/02/01 13:14:19;;;;;;;5.20;3.27;;;3.90;91.20;;;;;;5039060;28;20457;-56
2023/02/01 13:16:49;;;;;;;6.20;2.23;;;3.90;91.70;;;;;;5041245;28;20446;-57
2023/02/01 13:19:27;;;;;;;8.50;3.17;;;3.80;91.80;;;;;;5042923;28;20430;-56
2023/02/01 13:22:07;;;;;;;4.73;3.30;;;3.90;89.50;;;;;;5040805;28;21052;-57
2023/02/01 13:24:38;;;;;;;4.63;3.07;;;3.80;90.00;;;;;;5039630;28;20433;-57
2023/02/01 13:27:05;;;;;;;3.97;2.50;;;3.90;90.50;;;;;;5025615;28;20430;-56
2023/02/01 13:29:33;;;;;;;7.40;3.30;;;3.90;90.00;;;;;;5046273;28;20461;-57
2023/02/01 13:32:24;;;;;;;8.10;2.50;;;3.90;89.50;;;;;;5037944;28;20430;-58
2023/02/01 13:35:03;;;;;;;6.77;2.27;;;4.00;87.20;;;;;;5002881;28;20875;-57
2023/02/01 13:38:08;;;;;;;3.33;3.03;;;3.90;85.30;;;;;;5039488;28;21148;-58